TimeCDT,TemperatureF,Dew PointF,Humidity,Sea Level PressureIn,VisibilityMPH,Wind Direction,Wind SpeedMPH,Gust SpeedMPH,PrecipitationIn,Events,Conditions,WindDirDegrees,DateUTC
12:03 AM,24.8,21.2,86,30.28,10.0,Calm,Calm,-,N/A,,Clear,0,2013-03-29 05:03:00
12:24 AM,24.8,21.2,86,30.28,10.0,Calm,Calm,-,N/A,,Clear,0,2013-03-29 05:24:00
12:44 AM,26.6,24.8,93,30.28,10.0,Calm,Calm,-,N/A,,Clear,0,2013-03-29 05:44:00
1:03 AM,23.0,21.2,93,30.28,10.0,Calm,Calm,-,N/A,,Clear,0,2013-03-29 06:03:00
1:24 AM,21.2,21.2,100,30.28,7.0,Calm,Calm,-,N/A,,Clear,0,2013-03-29 06:24:00
1:44 AM,24.8,24.8,100,30.28,7.0,Calm,Calm,-,N/A,,Scattered Clouds,0,2013-03-29 06:44:00
2:03 AM,23.0,21.2,93,30.28,7.0,Calm,Calm,-,N/A,,Mostly Cloudy,0,2013-03-29 07:03:00
2:24 AM,23.0,21.2,93,30.28,7.0,Calm,Calm,-,N/A,,Mostly Cloudy,0,2013-03-29 07:24:00
2:44 AM,24.8,23.0,93,30.28,7.0,Calm,Calm,-,N/A,,Mostly Cloudy,0,2013-03-29 07:44:00
3:03 AM,26.6,24.8,93,30.28,7.0,Calm,Calm,-,N/A,,Overcast,0,2013-03-29 08:03:00
3:23 AM,26.6,24.8,93,30.27,7.0,Calm,Calm,-,N/A,,Overcast,0,2013-03-29 08:23:00
3:44 AM,26.6,24.8,93,30.27,7.0,Calm,Calm,-,N/A,,Overcast,0,2013-03-29 08:44:00
4:04 AM,26.6,24.8,93,30.26,7.0,East,3.5,-,N/A,,Overcast,100,2013-03-29 09:04:00
4:23 AM,26.6,23.0,86,30.27,7.0,ENE,3.5,-,N/A,,Mostly Cloudy,70,2013-03-29 09:23:00
4:44 AM,26.6,24.8,93,30.26,7.0,Calm,Calm,-,N/A,,Mostly Cloudy,0,2013-03-29 09:44:00
5:04 AM,26.6,24.8,93,30.26,7.0,Calm,Calm,-,N/A,,Mostly Cloudy,0,2013-03-29 10:04:00
5:23 AM,26.6,24.8,93,30.26,7.0,Calm,Calm,-,N/A,,Mostly Cloudy,0,2013-03-29 10:23:00
5:44 AM,26.6,23.0,86,30.26,7.0,Calm,Calm,-,N/A,,Mostly Cloudy,0,2013-03-29 10:44:00
6:03 AM,26.6,23.0,86,30.25,7.0,Calm,Calm,-,N/A,,Scattered Clouds,0,2013-03-29 11:03:00
6:24 AM,26.6,23.0,86,30.26,7.0,Calm,Calm,-,N/A,,Mostly Cloudy,0,2013-03-29 11:24:00
6:43 AM,26.6,24.8,93,30.26,7.0,Calm,Calm,-,N/A,,Overcast,0,2013-03-29 11:43:00
7:04 AM,26.6,24.8,93,30.26,5.0,East,3.5,-,N/A,,Overcast,90,2013-03-29 12:04:00
7:23 AM,26.6,24.8,93,30.26,5.0,East,4.6,-,N/A,,Mostly Cloudy,90,2013-03-29 12:23:00
7:44 AM,26.6,24.8,93,30.27,5.0,East,4.6,-,N/A,,Overcast,90,2013-03-29 12:44:00
8:04 AM,26.6,24.8,93,30.27,5.0,Calm,Calm,-,N/A,,Mostly Cloudy,0,2013-03-29 13:04:00
8:23 AM,28.4,26.6,93,30.27,5.0,East,3.5,-,N/A,,Mostly Cloudy,90,2013-03-29 13:23:00
8:43 AM,30.2,26.6,86,30.27,7.0,ENE,3.5,-,N/A,,Overcast,70,2013-03-29 13:43:00
9:04 AM,30.2,26.6,86,30.27,10.0,ESE,3.5,-,N/A,,Overcast,110,2013-03-29 14:04:00
9:23 AM,33.8,26.6,75,30.26,7.0,SE,4.6,-,N/A,Rain,Rain,130,2013-03-29 14:23:00
9:43 AM,33.8,26.6,75,30.26,10.0,SE,3.5,-,N/A,,Scattered Clouds,130,2013-03-29 14:43:00
10:04 AM,33.8,26.6,75,30.27,10.0,Calm,Calm,-,N/A,,Mostly Cloudy,0,2013-03-29 15:04:00
10:24 AM,35.6,26.6,70,30.26,10.0,SE,4.6,-,N/A,,Light Drizzle,130,2013-03-29 15:24:00
10:43 AM,35.6,26.6,70,30.26,10.0,SSE,5.8,-,N/A,,Clear,160,2013-03-29 15:43:00
11:04 AM,37.4,28.4,70,30.26,10.0,SE,4.6,-,N/A,,Scattered Clouds,140,2013-03-29 16:04:00
11:43 AM,37.4,28.4,70,30.26,10.0,SE,5.8,-,N/A,,Scattered Clouds,130,2013-03-29 16:43:00
12:04 PM,37.4,28.4,70,30.25,10.0,ESE,5.8,-,N/A,,Scattered Clouds,120,2013-03-29 17:04:00
12:24 PM,39.2,28.4,65,30.24,10.0,SE,5.8,-,N/A,,Scattered Clouds,140,2013-03-29 17:24:00
12:43 PM,39.2,28.4,65,30.24,10.0,SSE,8.1,-,N/A,,Scattered Clouds,150,2013-03-29 17:43:00
1:04 PM,41.0,28.4,61,30.24,10.0,SE,6.9,-,N/A,,Scattered Clouds,140,2013-03-29 18:04:00
1:24 PM,41.0,28.4,61,30.23,10.0,SE,9.2,-,N/A,,Clear,140,2013-03-29 18:24:00
1:43 PM,41.0,28.4,61,30.22,10.0,SE,9.2,-,N/A,,Clear,140,2013-03-29 18:43:00
2:04 PM,42.8,30.2,61,30.21,10.0,SE,8.1,-,N/A,,Clear,140,2013-03-29 19:04:00
2:24 PM,42.8,30.2,61,30.21,10.0,SSE,8.1,-,N/A,,Clear,150,2013-03-29 19:24:00
2:43 PM,42.8,30.2,61,30.20,10.0,SSE,8.1,-,N/A,,Clear,150,2013-03-29 19:43:00
3:04 PM,42.8,30.2,61,30.20,10.0,SSE,5.8,-,N/A,,Clear,150,2013-03-29 20:04:00
3:24 PM,42.8,32.0,66,30.19,10.0,SSE,8.1,-,N/A,,Scattered Clouds,160,2013-03-29 20:24:00
3:43 PM,41.0,32.0,70,30.18,10.0,SSE,6.9,-,N/A,,Mostly Cloudy,150,2013-03-29 20:43:00
4:04 PM,42.8,32.0,66,30.18,10.0,SE,8.1,-,N/A,,Mostly Cloudy,130,2013-03-29 21:04:00
4:24 PM,42.8,33.8,70,30.17,10.0,SE,9.2,-,N/A,,Scattered Clouds,140,2013-03-29 21:24:00
4:43 PM,42.8,33.8,70,30.16,10.0,SE,8.1,-,N/A,,Scattered Clouds,140,2013-03-29 21:43:00
5:04 PM,42.8,33.8,70,30.16,10.0,SE,5.8,-,N/A,,Scattered Clouds,140,2013-03-29 22:04:00
5:24 PM,41.0,33.8,76,30.15,10.0,SSE,5.8,-,N/A,,Scattered Clouds,150,2013-03-29 22:24:00
5:43 PM,41.0,33.8,76,30.15,10.0,SE,4.6,-,N/A,,Scattered Clouds,140,2013-03-29 22:43:00
6:04 PM,39.2,33.8,81,30.15,10.0,SE,3.5,-,N/A,,Clear,140,2013-03-29 23:04:00
6:24 PM,39.2,33.8,81,30.14,10.0,SE,3.5,-,N/A,,Clear,130,2013-03-29 23:24:00
6:43 PM,39.2,33.8,81,30.13,7.0,SE,3.5,-,N/A,,Clear,140,2013-03-29 23:43:00
7:04 PM,37.4,33.8,87,30.13,10.0,SE,3.5,-,N/A,,Clear,130,2013-03-30 00:04:00
7:23 PM,37.4,33.8,87,30.13,10.0,SE,3.5,-,N/A,,Clear,130,2013-03-30 00:23:00
7:44 PM,37.4,33.8,87,30.13,10.0,SE,4.6,-,N/A,,Clear,140,2013-03-30 00:44:00
8:04 PM,37.4,33.8,87,30.12,10.0,SE,3.5,-,N/A,,Clear,140,2013-03-30 01:04:00
8:23 PM,35.6,33.8,93,30.12,10.0,ESE,3.5,-,N/A,,Clear,120,2013-03-30 01:23:00
8:44 PM,35.6,32.0,87,30.12,10.0,Calm,Calm,-,N/A,,Clear,0,2013-03-30 01:44:00
9:04 PM,33.8,32.0,93,30.11,7.0,Calm,Calm,-,N/A,,Scattered Clouds,0,2013-03-30 02:04:00
9:23 PM,35.6,32.0,87,30.11,7.0,Calm,Calm,-,N/A,,Scattered Clouds,0,2013-03-30 02:23:00
9:44 PM,35.6,32.0,87,30.11,7.0,East,3.5,-,N/A,,Mostly Cloudy,80,2013-03-30 02:44:00
10:04 PM,35.6,32.0,87,30.11,7.0,ESE,3.5,-,N/A,,Overcast,110,2013-03-30 03:04:00
10:23 PM,35.6,32.0,87,30.11,7.0,East,3.5,-,N/A,,Mostly Cloudy,100,2013-03-30 03:23:00
10:44 PM,35.6,32.0,87,30.10,7.0,East,3.5,-,N/A,,Scattered Clouds,100,2013-03-30 03:44:00
11:04 PM,37.4,33.8,87,30.09,10.0,Calm,Calm,-,N/A,,Scattered Clouds,0,2013-03-30 04:04:00
11:23 PM,37.4,33.8,87,30.08,10.0,SSE,3.5,-,N/A,,Scattered Clouds,160,2013-03-30 04:23:00
11:44 PM,37.4,33.8,87,30.07,10.0,SSE,4.6,-,N/A,,Clear,150,2013-03-30 04:44:00